N9497M KSAN-KLAX
Flight info
| Callsign | N9497M |
|---|---|
| Flight time | 0h 54m |
| Altitude | 6000 |
| Route | OCN V23 SLI |
| Aircraft | C210/L-SGRDB/C |
Departure
| Time | 2026-04-23 01:36 |
|---|---|
| Airport | San Diego International Airport (KSAN) |
Arrival
| Time | 2026-04-23 02:30 |
|---|---|
| Airport | Los Angeles International Airport (KLAX) |
| Time | Latitude | Longitude | Altitude | Speed | Heading |
|---|---|---|---|---|---|
| 2026-04-23 00:58 | 32.73325 | -117.17818 | 20 ft | 0 kts | 147° |
| 2026-04-23 01:30 | 32.73329 | -117.17827 | 21 ft | 4 kts | 322° |
| 2026-04-23 01:31 | 32.73364 | -117.17853 | 22 ft | 6 kts | 314° |
| 2026-04-23 01:31 | 32.73380 | -117.17913 | 23 ft | 12 kts | 252° |
| 2026-04-23 01:31 | 32.73359 | -117.17936 | 23 ft | 0 kts | 206° |
| 2026-04-23 01:31 | 32.73355 | -117.17938 | 23 ft | 0 kts | 205° |
| 2026-04-23 01:32 | 32.73294 | -117.17973 | 21 ft | 18 kts | 206° |
| 2026-04-23 01:32 | 32.73244 | -117.18072 | 19 ft | 9 kts | 162° |
| 2026-04-23 01:32 | 32.73248 | -117.18038 | 19 ft | 12 kts | 98° |
| 2026-04-23 01:32 | 32.73215 | -117.17876 | 19 ft | 24 kts | 107° |
| 2026-04-23 01:33 | 32.73179 | -117.17723 | 21 ft | 11 kts | 101° |
| 2026-04-23 01:33 | 32.73171 | -117.17685 | 20 ft | 0 kts | 120° |
| 2026-04-23 01:33 | 32.73152 | -117.17666 | 20 ft | 9 kts | 147° |
| 2026-04-23 01:33 | 32.73138 | -117.17663 | 20 ft | 0 kts | 182° |
| 2026-04-23 01:34 | 32.73133 | -117.17664 | 20 ft | 5 kts | 182° |
| 2026-04-23 01:34 | 32.73057 | -117.17689 | 19 ft | 11 kts | 233° |
| 2026-04-23 01:34 | 32.73055 | -117.17729 | 18 ft | 0 kts | 287° |
| 2026-04-23 01:35 | 32.73056 | -117.17731 | 18 ft | 3 kts | 286° |
| 2026-04-23 01:35 | 32.73122 | -117.18004 | 16 ft | 65 kts | 285° |
| 2026-04-23 01:35 | 32.73277 | -117.18600 | 184 ft | 79 kts | 287° |
| 2026-04-23 01:35 | 32.73627 | -117.19151 | 443 ft | 89 kts | 319° |
| 2026-04-23 01:36 | 32.74135 | -117.19607 | 760 ft | 98 kts | 324° |
| 2026-04-23 01:36 | 32.74705 | -117.20129 | 1096 ft | 107 kts | 321° |
| 2026-04-23 01:36 | 32.75288 | -117.20674 | 1481 ft | 110 kts | 319° |
| 2026-04-23 01:36 | 32.75868 | -117.21289 | 1861 ft | 113 kts | 315° |
| 2026-04-23 01:37 | 32.76432 | -117.21941 | 2078 ft | 118 kts | 316° |
| 2026-04-23 01:37 | 32.77020 | -117.22639 | 2277 ft | 122 kts | 313° |
| 2026-04-23 01:37 | 32.77598 | -117.23378 | 2493 ft | 123 kts | 310° |
| 2026-04-23 01:37 | 32.78162 | -117.24200 | 2621 ft | 129 kts | 311° |
| 2026-04-23 01:38 | 32.78783 | -117.24919 | 2884 ft | 127 kts | 315° |
| 2026-04-23 01:38 | 32.79442 | -117.25662 | 3039 ft | 131 kts | 316° |
| 2026-04-23 01:38 | 32.80172 | -117.26223 | 3322 ft | 125 kts | 342° |
| 2026-04-23 01:38 | 32.81048 | -117.26300 | 3486 ft | 128 kts | 359° |
| 2026-04-23 01:39 | 32.81894 | -117.26456 | 3803 ft | 118 kts | 346° |
| 2026-04-23 01:39 | 32.82629 | -117.26730 | 4073 ft | 111 kts | 332° |
| 2026-04-23 01:39 | 32.83343 | -117.27007 | 4316 ft | 109 kts | 346° |
| 2026-04-23 01:39 | 32.84085 | -117.27187 | 4507 ft | 115 kts | 348° |
| 2026-04-23 01:40 | 32.84878 | -117.27324 | 4692 ft | 119 kts | 349° |
| 2026-04-23 01:40 | 32.85724 | -117.27481 | 4857 ft | 124 kts | 350° |
| 2026-04-23 01:40 | 32.86621 | -117.27652 | 4902 ft | 138 kts | 347° |
| 2026-04-23 01:40 | 32.87564 | -117.27848 | 5081 ft | 136 kts | 349° |
| 2026-04-23 01:41 | 32.88467 | -117.28050 | 5376 ft | 129 kts | 348° |
| 2026-04-23 01:41 | 32.89355 | -117.28272 | 5520 ft | 134 kts | 344° |
| 2026-04-23 01:41 | 32.90275 | -117.28538 | 5690 ft | 136 kts | 345° |
| 2026-04-23 01:41 | 32.91190 | -117.28789 | 5911 ft | 132 kts | 347° |
| 2026-04-23 01:42 | 32.92125 | -117.29025 | 5901 ft | 145 kts | 349° |
| 2026-04-23 01:42 | 32.93196 | -117.29161 | 5755 ft | 161 kts | 354° |
| 2026-04-23 01:42 | 32.94322 | -117.29295 | 5713 ft | 162 kts | 352° |
| 2026-04-23 01:42 | 32.95424 | -117.29488 | 5765 ft | 157 kts | 348° |
| 2026-04-23 01:43 | 32.96462 | -117.29771 | 5873 ft | 152 kts | 344° |
| 2026-04-23 01:43 | 32.97472 | -117.30088 | 5889 ft | 152 kts | 346° |
| 2026-04-23 01:43 | 32.98525 | -117.30406 | 5787 ft | 159 kts | 345° |
| 2026-04-23 01:43 | 32.99577 | -117.30721 | 5879 ft | 154 kts | 344° |
| 2026-04-23 01:44 | 33.00607 | -117.31086 | 5954 ft | 154 kts | 339° |
| 2026-04-23 01:44 | 33.01599 | -117.31493 | 6113 ft | 142 kts | 335° |
| 2026-04-23 01:44 | 33.02564 | -117.31912 | 5989 ft | 157 kts | 339° |
| 2026-04-23 01:44 | 33.03618 | -117.32292 | 6015 ft | 157 kts | 341° |
| 2026-04-23 01:45 | 33.04668 | -117.32677 | 5972 ft | 160 kts | 344° |
| 2026-04-23 01:45 | 33.05752 | -117.33017 | 5967 ft | 162 kts | 343° |
| 2026-04-23 01:45 | 33.06821 | -117.33452 | 5963 ft | 162 kts | 336° |
| 2026-04-23 01:45 | 33.07834 | -117.33978 | 5965 ft | 161 kts | 338° |
| 2026-04-23 01:46 | 33.08944 | -117.34313 | 5898 ft | 164 kts | 349° |
| 2026-04-23 01:46 | 33.10044 | -117.34559 | 5937 ft | 161 kts | 348° |
| 2026-04-23 01:46 | 33.11136 | -117.34856 | 5915 ft | 163 kts | 345° |
| 2026-04-23 01:46 | 33.12261 | -117.35203 | 5830 ft | 165 kts | 345° |
| 2026-04-23 01:47 | 33.13300 | -117.35552 | 5827 ft | 165 kts | 341° |
| 2026-04-23 01:47 | 33.14425 | -117.35917 | 5801 ft | 163 kts | 351° |
| 2026-04-23 01:47 | 33.15562 | -117.35966 | 5757 ft | 165 kts | 1° |
| 2026-04-23 01:47 | 33.16710 | -117.35911 | 5736 ft | 165 kts | 1° |
| 2026-04-23 01:48 | 33.17855 | -117.35921 | 5655 ft | 168 kts | 356° |
| 2026-04-23 01:48 | 33.19012 | -117.36029 | 5625 ft | 166 kts | 357° |
| 2026-04-23 01:48 | 33.20161 | -117.36030 | 5654 ft | 162 kts | 0° |
| 2026-04-23 01:48 | 33.21282 | -117.35997 | 5698 ft | 158 kts | 359° |
| 2026-04-23 01:49 | 33.22340 | -117.35956 | 5891 ft | 144 kts | 352° |
| 2026-04-23 01:49 | 33.23245 | -117.36452 | 5955 ft | 146 kts | 326° |
| 2026-04-23 01:49 | 33.23962 | -117.37329 | 5945 ft | 152 kts | 308° |
| 2026-04-23 01:49 | 33.24638 | -117.38365 | 5741 ft | 168 kts | 305° |
| 2026-04-23 01:50 | 33.25261 | -117.39491 | 5987 ft | 146 kts | 301° |
| 2026-04-23 01:50 | 33.25832 | -117.40532 | 5932 ft | 156 kts | 304° |
| 2026-04-23 01:50 | 33.26480 | -117.41541 | 5997 ft | 155 kts | 307° |
| 2026-04-23 01:50 | 33.27146 | -117.42597 | 5948 ft | 159 kts | 305° |
| 2026-04-23 01:51 | 33.27808 | -117.43617 | 5982 ft | 156 kts | 306° |
| 2026-04-23 01:51 | 33.28481 | -117.44695 | 5882 ft | 162 kts | 307° |
| 2026-04-23 01:51 | 33.29182 | -117.45726 | 5895 ft | 161 kts | 308° |
| 2026-04-23 01:51 | 33.29862 | -117.46788 | 5896 ft | 160 kts | 305° |
| 2026-04-23 01:52 | 33.30488 | -117.47877 | 5900 ft | 160 kts | 302° |
| 2026-04-23 01:52 | 33.31093 | -117.48959 | 6001 ft | 155 kts | 303° |
| 2026-04-23 01:52 | 33.31693 | -117.50040 | 6013 ft | 155 kts | 302° |
| 2026-04-23 01:52 | 33.32371 | -117.51015 | 6083 ft | 154 kts | 313° |
| 2026-04-23 01:53 | 33.33127 | -117.51977 | 5973 ft | 162 kts | 314° |
| 2026-04-23 01:53 | 33.33906 | -117.52927 | 6080 ft | 155 kts | 315° |
| 2026-04-23 01:53 | 33.34704 | -117.53791 | 6065 ft | 159 kts | 318° |
| 2026-04-23 01:53 | 33.35558 | -117.54665 | 6080 ft | 159 kts | 318° |
| 2026-04-23 01:54 | 33.36388 | -117.55549 | 6038 ft | 162 kts | 317° |
| 2026-04-23 01:54 | 33.37211 | -117.56461 | 6085 ft | 159 kts | 314° |
| 2026-04-23 01:54 | 33.37976 | -117.57415 | 6104 ft | 160 kts | 312° |
| 2026-04-23 01:54 | 33.38765 | -117.58364 | 6087 ft | 162 kts | 315° |
| 2026-04-23 01:55 | 33.39579 | -117.59290 | 6101 ft | 161 kts | 315° |
| 2026-04-23 01:55 | 33.40378 | -117.60215 | 6135 ft | 160 kts | 316° |
| 2026-04-23 01:55 | 33.41183 | -117.61121 | 6121 ft | 162 kts | 316° |
| 2026-04-23 01:55 | 33.42019 | -117.62043 | 6144 ft | 161 kts | 318° |
| 2026-04-23 01:56 | 33.42874 | -117.62911 | 6149 ft | 162 kts | 320° |
| 2026-04-23 01:56 | 33.43722 | -117.63794 | 6168 ft | 161 kts | 316° |
| 2026-04-23 01:56 | 33.44524 | -117.64751 | 6109 ft | 164 kts | 314° |
| 2026-04-23 01:56 | 33.45337 | -117.65715 | 6082 ft | 165 kts | 315° |
| 2026-04-23 01:57 | 33.46186 | -117.66643 | 6035 ft | 165 kts | 319° |
| 2026-04-23 01:57 | 33.47066 | -117.67517 | 6013 ft | 165 kts | 322° |
| 2026-04-23 01:57 | 33.47969 | -117.68329 | 6013 ft | 163 kts | 321° |
| 2026-04-23 01:57 | 33.48857 | -117.69174 | 6002 ft | 163 kts | 321° |
| 2026-04-23 01:58 | 33.49732 | -117.69967 | 6015 ft | 162 kts | 322° |
| 2026-04-23 01:58 | 33.50635 | -117.70777 | 6008 ft | 162 kts | 322° |
| 2026-04-23 01:58 | 33.51564 | -117.71546 | 5991 ft | 163 kts | 326° |
| 2026-04-23 01:58 | 33.52447 | -117.72390 | 5931 ft | 163 kts | 314° |
| 2026-04-23 01:59 | 33.53249 | -117.73340 | 5923 ft | 162 kts | 314° |
| 2026-04-23 01:59 | 33.54033 | -117.74332 | 5899 ft | 161 kts | 310° |
| 2026-04-23 01:59 | 33.54765 | -117.75339 | 5913 ft | 161 kts | 311° |
| 2026-04-23 01:59 | 33.55501 | -117.76358 | 5886 ft | 163 kts | 310° |
| 2026-04-23 02:00 | 33.56230 | -117.77381 | 5926 ft | 160 kts | 312° |
| 2026-04-23 02:00 | 33.57047 | -117.78286 | 5910 ft | 161 kts | 321° |
| 2026-04-23 02:00 | 33.57916 | -117.79150 | 5895 ft | 162 kts | 318° |
| 2026-04-23 02:00 | 33.58732 | -117.80064 | 5938 ft | 160 kts | 315° |
| 2026-04-23 02:01 | 33.59504 | -117.81029 | 5923 ft | 162 kts | 311° |
| 2026-04-23 02:01 | 33.60240 | -117.82049 | 5929 ft | 161 kts | 310° |
| 2026-04-23 02:01 | 33.60946 | -117.83087 | 5951 ft | 160 kts | 307° |
| 2026-04-23 02:01 | 33.61610 | -117.84162 | 5941 ft | 161 kts | 303° |
| 2026-04-23 02:02 | 33.62199 | -117.85302 | 5928 ft | 161 kts | 304° |
| 2026-04-23 02:02 | 33.62862 | -117.86382 | 5944 ft | 160 kts | 306° |
| 2026-04-23 02:02 | 33.63522 | -117.87455 | 5953 ft | 160 kts | 309° |
| 2026-04-23 02:02 | 33.64244 | -117.88480 | 5933 ft | 161 kts | 309° |
| 2026-04-23 02:03 | 33.64977 | -117.89492 | 5965 ft | 160 kts | 311° |
| 2026-04-23 02:03 | 33.65752 | -117.90452 | 5934 ft | 162 kts | 317° |
| 2026-04-23 02:03 | 33.66595 | -117.91351 | 5952 ft | 161 kts | 318° |
| 2026-04-23 02:03 | 33.67428 | -117.92230 | 5982 ft | 160 kts | 319° |
| 2026-04-23 02:04 | 33.68314 | -117.93030 | 5977 ft | 159 kts | 333° |
| 2026-04-23 02:04 | 33.69353 | -117.93422 | 5970 ft | 155 kts | 345° |
| 2026-04-23 02:04 | 33.70417 | -117.93744 | 5947 ft | 160 kts | 345° |
| 2026-04-23 02:04 | 33.71495 | -117.94102 | 5944 ft | 161 kts | 343° |
| 2026-04-23 02:05 | 33.72575 | -117.94470 | 5948 ft | 161 kts | 343° |
| 2026-04-23 02:05 | 33.73649 | -117.94832 | 5973 ft | 161 kts | 343° |
| 2026-04-23 02:05 | 33.74726 | -117.95217 | 5966 ft | 162 kts | 342° |
| 2026-04-23 02:05 | 33.75437 | -117.95479 | 5981 ft | 161 kts | 342° |
| 2026-04-23 02:06 | 33.76508 | -117.95877 | 5993 ft | 161 kts | 342° |
| 2026-04-23 02:06 | 33.77568 | -117.96325 | 6001 ft | 161 kts | 338° |
| 2026-04-23 02:06 | 33.78626 | -117.96757 | 5983 ft | 161 kts | 338° |
| 2026-04-23 02:06 | 33.79665 | -117.97205 | 5954 ft | 159 kts | 345° |
| 2026-04-23 02:07 | 33.80747 | -117.97512 | 5983 ft | 158 kts | 346° |
| 2026-04-23 02:07 | 33.81839 | -117.97798 | 5925 ft | 163 kts | 346° |
| 2026-04-23 02:07 | 33.82936 | -117.98126 | 5959 ft | 161 kts | 345° |
| 2026-04-23 02:07 | 33.83806 | -117.98843 | 5941 ft | 157 kts | 297° |
| 2026-04-23 02:08 | 33.83756 | -118.00124 | 5888 ft | 157 kts | 253° |
| 2026-04-23 02:08 | 33.83405 | -118.01379 | 5872 ft | 158 kts | 251° |
| 2026-04-23 02:08 | 33.83091 | -118.02656 | 5842 ft | 160 kts | 254° |
| 2026-04-23 02:08 | 33.82833 | -118.03951 | 5868 ft | 159 kts | 258° |
| 2026-04-23 02:09 | 33.82562 | -118.05219 | 5899 ft | 156 kts | 256° |
| 2026-04-23 02:09 | 33.82274 | -118.06494 | 5880 ft | 159 kts | 253° |
| 2026-04-23 02:09 | 33.81938 | -118.07760 | 5875 ft | 160 kts | 252° |
| 2026-04-23 02:09 | 33.81597 | -118.09034 | 5885 ft | 160 kts | 252° |
| 2026-04-23 02:10 | 33.81559 | -118.10315 | 5846 ft | 160 kts | 294° |
| 2026-04-23 02:10 | 33.82411 | -118.11090 | 5868 ft | 157 kts | 344° |
| 2026-04-23 02:10 | 33.83487 | -118.11219 | 5897 ft | 160 kts | 354° |
| 2026-04-23 02:10 | 33.84634 | -118.11358 | 5947 ft | 170 kts | 353° |
| 2026-04-23 02:11 | 33.85827 | -118.11529 | 5962 ft | 176 kts | 352° |
| 2026-04-23 02:11 | 33.87056 | -118.11716 | 5972 ft | 177 kts | 352° |
| 2026-04-23 02:11 | 33.88291 | -118.11892 | 5944 ft | 182 kts | 353° |
| 2026-04-23 02:11 | 33.89568 | -118.12066 | 5752 ft | 187 kts | 352° |
| 2026-04-23 02:12 | 33.90859 | -118.12201 | 5427 ft | 183 kts | 2° |
| 2026-04-23 02:12 | 33.92164 | -118.12110 | 4867 ft | 190 kts | 2° |
| 2026-04-23 02:12 | 33.93448 | -118.11988 | 4690 ft | 175 kts | 4° |
| 2026-04-23 02:12 | 33.94613 | -118.11823 | 4647 ft | 166 kts | 6° |
| 2026-04-23 02:13 | 33.95740 | -118.11819 | 4546 ft | 160 kts | 341° |
| 2026-04-23 02:13 | 33.96434 | -118.12751 | 4551 ft | 148 kts | 288° |
| 2026-04-23 02:13 | 33.96680 | -118.13928 | 4552 ft | 144 kts | 284° |
| 2026-04-23 02:13 | 33.96897 | -118.15121 | 4360 ft | 147 kts | 268° |
| 2026-04-23 02:14 | 33.96894 | -118.16367 | 4172 ft | 152 kts | 270° |
| 2026-04-23 02:14 | 33.96923 | -118.17673 | 3853 ft | 161 kts | 272° |
| 2026-04-23 02:14 | 33.96976 | -118.19023 | 3571 ft | 162 kts | 272° |
| 2026-04-23 02:14 | 33.97004 | -118.20410 | 3169 ft | 168 kts | 270° |
| 2026-04-23 02:15 | 33.97104 | -118.23096 | 2841 ft | 151 kts | 273° |
| 2026-04-23 02:15 | 33.97155 | -118.24330 | 2899 ft | 143 kts | 272° |
| 2026-04-23 02:15 | 33.97204 | -118.25521 | 2850 ft | 142 kts | 278° |
| 2026-04-23 02:16 | 33.97771 | -118.26436 | 2871 ft | 140 kts | 335° |
| 2026-04-23 02:16 | 33.98657 | -118.26136 | 2854 ft | 145 kts | 47° |
| 2026-04-23 02:16 | 33.99039 | -118.25016 | 2829 ft | 146 kts | 72° |
| 2026-04-23 02:16 | 33.99306 | -118.23842 | 2824 ft | 146 kts | 76° |
| 2026-04-23 02:17 | 33.99564 | -118.22641 | 2804 ft | 148 kts | 75° |
| 2026-04-23 02:17 | 33.99807 | -118.21482 | 2884 ft | 143 kts | 77° |
| 2026-04-23 02:17 | 34.00036 | -118.20309 | 2920 ft | 142 kts | 75° |
| 2026-04-23 02:17 | 34.00269 | -118.19165 | 2936 ft | 143 kts | 76° |
| 2026-04-23 02:18 | 34.00476 | -118.17981 | 2934 ft | 145 kts | 79° |
| 2026-04-23 02:18 | 34.00616 | -118.16774 | 2979 ft | 143 kts | 83° |
| 2026-04-23 02:18 | 34.00726 | -118.15576 | 3000 ft | 144 kts | 83° |
| 2026-04-23 02:18 | 34.00664 | -118.14384 | 2883 ft | 149 kts | 112° |
| 2026-04-23 02:19 | 33.99846 | -118.13644 | 2626 ft | 150 kts | 170° |
| 2026-04-23 02:19 | 33.98953 | -118.14027 | 2509 ft | 138 kts | 226° |
| 2026-04-23 02:19 | 33.98301 | -118.14861 | 2382 ft | 137 kts | 227° |
| 2026-04-23 02:19 | 33.97624 | -118.15699 | 2176 ft | 142 kts | 226° |
| 2026-04-23 02:20 | 33.96959 | -118.16523 | 2154 ft | 134 kts | 227° |
| 2026-04-23 02:20 | 33.96590 | -118.17488 | 2117 ft | 129 kts | 277° |
| 2026-04-23 02:20 | 33.96830 | -118.18506 | 2088 ft | 128 kts | 284° |
| 2026-04-23 02:20 | 33.97032 | -118.19589 | 1953 ft | 136 kts | 283° |
| 2026-04-23 02:21 | 33.97241 | -118.20724 | 1833 ft | 140 kts | 282° |
| 2026-04-23 02:21 | 33.97453 | -118.21854 | 1794 ft | 137 kts | 283° |
| 2026-04-23 02:21 | 33.97644 | -118.22974 | 1778 ft | 133 kts | 280° |
| 2026-04-23 02:21 | 33.97812 | -118.24067 | 1755 ft | 132 kts | 277° |
| 2026-04-23 02:22 | 33.97730 | -118.25154 | 1873 ft | 133 kts | 271° |
| 2026-04-23 02:22 | 33.98179 | -118.26078 | 2175 ft | 139 kts | 336° |
| 2026-04-23 02:22 | 33.99140 | -118.25956 | 2276 ft | 157 kts | 40° |
| 2026-04-23 02:22 | 33.99664 | -118.24769 | 2257 ft | 168 kts | 73° |
| 2026-04-23 02:23 | 34.00056 | -118.23444 | 2259 ft | 171 kts | 71° |
| 2026-04-23 02:23 | 34.00468 | -118.22073 | 2245 ft | 178 kts | 69° |
| 2026-04-23 02:23 | 34.00841 | -118.20654 | 2103 ft | 180 kts | 73° |
| 2026-04-23 02:23 | 34.01143 | -118.19252 | 2227 ft | 166 kts | 75° |
| 2026-04-23 02:24 | 34.00923 | -118.17957 | 2372 ft | 161 kts | 124° |
| 2026-04-23 02:24 | 33.99983 | -118.17335 | 2493 ft | 160 kts | 179° |
| 2026-04-23 02:24 | 33.99028 | -118.17932 | 2503 ft | 159 kts | 224° |
| 2026-04-23 02:24 | 33.98217 | -118.18883 | 2466 ft | 167 kts | 225° |
| 2026-04-23 02:25 | 33.97421 | -118.19893 | 2501 ft | 163 kts | 227° |
| 2026-04-23 02:25 | 33.96815 | -118.21012 | 2558 ft | 162 kts | 240° |
| 2026-04-23 02:25 | 33.96262 | -118.22247 | 2448 ft | 172 kts | 243° |
| 2026-04-23 02:25 | 33.95978 | -118.23603 | 2477 ft | 167 kts | 273° |
| 2026-04-23 02:26 | 33.96275 | -118.24955 | 2384 ft | 169 kts | 294° |
| 2026-04-23 02:26 | 33.96742 | -118.26224 | 2348 ft | 160 kts | 284° |
| 2026-04-23 02:26 | 33.96682 | -118.27512 | 2235 ft | 159 kts | 245° |
| 2026-04-23 02:26 | 33.96200 | -118.28694 | 2158 ft | 157 kts | 240° |
| 2026-04-23 02:27 | 33.95690 | -118.29844 | 2129 ft | 153 kts | 240° |
| 2026-04-23 02:27 | 33.95439 | -118.31019 | 2119 ft | 146 kts | 272° |
| 2026-04-23 02:27 | 33.95663 | -118.32240 | 1939 ft | 152 kts | 283° |
| 2026-04-23 02:27 | 33.95847 | -118.33496 | 1791 ft | 151 kts | 271° |
| 2026-04-23 02:28 | 33.95779 | -118.34713 | 1558 ft | 141 kts | 259° |
| 2026-04-23 02:28 | 33.95669 | -118.35859 | 1272 ft | 133 kts | 261° |
| 2026-04-23 02:28 | 33.95563 | -118.36945 | 987 ft | 126 kts | 258° |
| 2026-04-23 02:28 | 33.95450 | -118.37948 | 698 ft | 119 kts | 258° |
| 2026-04-23 02:29 | 33.95350 | -118.38874 | 457 ft | 105 kts | 261° |
| 2026-04-23 02:29 | 33.95261 | -118.39699 | 246 ft | 94 kts | 261° |
| 2026-04-23 02:29 | 33.95183 | -118.40461 | 149 ft | 88 kts | 261° |
| 2026-04-23 02:29 | 33.95113 | -118.41130 | 121 ft | 69 kts | 261° |
| 2026-04-23 02:30 | 33.95070 | -118.41523 | 121 ft | 30 kts | 255° |
| 2026-04-23 02:30 | 33.95044 | -118.41712 | 119 ft | 18 kts | 245° |
| 2026-04-23 02:30 | 33.94991 | -118.41838 | 121 ft | 11 kts | 231° |
| 2026-04-23 02:30 | 33.94981 | -118.41852 | 120 ft | 0 kts | 227° |